Time;durP1;ratioP1;P1;durP2;ratioP2;P2;SDS_P1;SDS_P2;PMS_P1;PMS_P2;Temp;Humidity;BMP_temperature;BMP_pressure;BME280_temperature;BME280_humidity;BME280_pressure;Samples;Min_cycle;Max_cycle;Signal;HPM_P1;HPM_P2
2021/12/01 00:00:43;;;;;;;7.93;1.88;;;;;;;10.20;100.00;99760.44;5035275;28;20120;-47
2021/12/01 00:03:08;;;;;;;15.07;3.75;;;;;;;10.32;100.00;99760.72;5033973;28;20025;-49
2021/12/01 00:05:34;;;;;;;8.93;2.17;;;;;;;10.34;100.00;99756.22;5035051;28;20033;-51
2021/12/01 00:07:59;;;;;;;10.40;2.83;;;;;;;10.08;100.00;99710.13;5035154;28;20033;-49
2021/12/01 00:10:27;;;;;;;12.70;2.58;;;;;;;10.30;100.00;99752.06;5033552;28;20048;-53
2021/12/01 00:12:53;;;;;;;15.27;2.50;;;;;;;10.43;100.00;99726.00;5035013;28;20033;-50
2021/12/01 00:15:19;;;;;;;15.80;3.35;;;;;;;10.42;100.00;99751.44;5033771;28;20036;-48
2021/12/01 00:17:45;;;;;;;19.42;2.50;;;;;;;10.44;100.00;99720.66;5033228;28;20096;-52
2021/12/01 00:20:13;;;;;;;17.35;2.83;;;;;;;10.42;100.00;99706.72;5033634;28;20077;-53
2021/12/01 00:22:39;;;;;;;19.67;3.10;;;;;;;10.46;100.00;99702.16;5034801;28;20045;-50
2021/12/01 00:25:07;;;;;;;16.13;3.47;;;;;;;10.13;100.00;99638.94;5034500;28;20439;-49
2021/12/01 00:27:32;;;;;;;15.93;2.65;;;;;;;10.54;100.00;99692.97;5017331;28;20046;-48
2021/12/01 00:29:58;;;;;;;16.42;2.80;;;;;;;10.30;100.00;99649.50;5034589;28;20091;-49
2021/12/01 00:32:23;;;;;;;11.00;2.55;;;;;;;10.57;100.00;99692.81;5034647;28;20041;-52
2021/12/01 00:34:49;;;;;;;19.45;2.63;;;;;;;10.33;100.00;99627.44;5033314;28;20421;-48
2021/12/01 00:37:14;;;;;;;13.60;2.45;;;;;;;10.61;100.00;99678.56;5033351;28;20040;-49
2021/12/01 00:39:39;;;;;;;11.45;2.13;;;;;;;10.60;100.00;99676.88;5034428;28;20057;-47
2021/12/01 00:42:06;;;;;;;9.20;2.15;;;;;;;10.56;100.00;99651.66;5034370;28;20511;-49
2021/12/01 00:44:33;;;;;;;12.65;2.20;;;;;;;10.43;100.00;99639.19;5034285;28;20055;-48
2021/12/01 00:49:28;;;;;;;6.78;1.48;;;;;;;10.46;100.00;99618.84;5034351;28;20099;-49
2021/12/01 00:51:53;;;;;;;5.18;1.52;;;;;;;10.53;100.00;99627.28;5034198;28;20037;-52
2021/12/01 00:54:19;;;;;;;5.13;1.52;;;;;;;10.43;100.00;99631.28;5033936;28;20496;-52
2021/12/01 00:56:44;;;;;;;7.75;2.10;;;;;;;10.25;100.00;99582.25;5034179;28;20033;-47
2021/12/01 00:59:10;;;;;;;7.93;2.25;;;;;;;9.89;100.00;99524.47;5034118;28;20038;-51
2021/12/01 01:01:35;;;;;;;12.18;1.83;;;;;;;10.36;100.00;99616.75;5034114;28;20045;-49
2021/12/01 01:04:01;;;;;;;7.53;1.48;;;;;;;10.10;100.00;99591.72;5034338;28;20037;-53
2021/12/01 01:06:27;;;;;;;4.28;1.67;;;;;;;10.18;100.00;99565.09;5033973;28;20033;-51
2021/12/01 01:08:52;;;;;;;5.55;1.80;;;;;;;10.38;100.00;99594.72;5032675;28;20469;-50
2021/12/01 01:16:46;;;;;;;9.27;2.47;;;;;;;10.41;100.00;99538.44;5033015;28;20120;-48
2021/12/01 01:19:14;;;;;;;9.85;2.72;;;;;;;10.42;100.00;99569.09;5033966;28;20466;-49
2021/12/01 01:21:43;;;;;;;9.05;2.00;;;;;;;10.18;100.00;99517.75;5032628;28;20120;-49
2021/12/01 01:24:09;;;;;;;11.80;2.10;;;;;;;10.22;100.00;99508.75;5033838;28;20428;-51
2021/12/01 01:26:35;;;;;;;8.15;1.83;;;;;;;10.22;100.00;99524.53;5033665;28;20042;-52
2021/12/01 01:29:01;;;;;;;11.85;2.03;;;;;;;10.48;100.00;99538.03;5033419;28;20158;-48
2021/12/01 01:31:27;;;;;;;14.15;2.80;;;;;;;10.51;100.00;99553.66;5033337;28;20078;-50
2021/12/01 01:33:53;;;;;;;10.23;3.00;;;;;;;10.30;100.00;99501.34;5032378;28;20033;-46
2021/12/01 01:36:19;;;;;;;18.85;3.00;;;;;;;10.38;100.00;99507.03;5033388;28;20037;-49
2021/12/01 01:38:45;;;;;;;16.42;3.13;;;;;;;10.44;100.00;99507.59;5032215;28;20033;-50
2021/12/01 01:41:12;;;;;;;14.82;2.95;;;;;;;10.22;100.00;99491.22;5033875;28;20128;-47
2021/12/01 01:43:38;;;;;;;20.73;3.00;;;;;;;10.38;100.00;99484.22;5032254;28;20029;-49
2021/12/01 01:46:05;;;;;;;18.08;2.75;;;;;;;10.16;100.00;99433.69;5031942;28;20083;-48
2021/12/01 01:48:32;;;;;;;15.05;2.45;;;;;;;10.28;100.00;99453.22;5031922;28;20473;-50
2021/12/01 01:51:04;;;;;;;19.42;2.83;;;;;;;10.61;100.00;99498.78;5031976;28;20064;-50
2021/12/01 01:53:30;;;;;;;7.75;2.20;;;;;;;10.31;100.00;99451.28;5033174;28;20048;-51
2021/12/01 01:55:58;;;;;;;15.05;2.50;;;;;;;10.28;100.00;99422.50;5031823;28;20480;-46
2021/12/01 01:58:27;;;;;;;7.90;2.00;;;;;;;10.03;100.00;99373.00;5033258;28;20053;-50
2021/12/01 02:01:07;;;;;;;13.23;2.20;;;;;;;10.67;100.00;99487.94;5032868;28;20045;-51
2021/12/01 02:03:42;;;;;;;11.88;2.10;;;;;;;10.65;100.00;99459.06;5033176;28;20025;-48
2021/12/01 02:06:09;;;;;;;9.27;2.03;;;;;;;10.64;100.00;99456.53;5032841;28;20037;-49
2021/12/01 02:08:36;;;;;;;10.68;2.10;;;;;;;10.34;100.00;99388.00;5032706;28;20489;-48
2021/12/01 02:11:04;;;;;;;9.77;2.10;;;;;;;10.58;100.00;99441.91;5031633;28;20045;-51
2021/12/01 02:13:29;;;;;;;7.43;2.25;;;;;;;10.31;100.00;99366.25;5032892;28;20412;-51
2021/12/01 02:15:56;;;;;;;9.77;1.83;;;;;;;10.56;100.00;99427.16;5014995;28;20033;-48
2021/12/01 02:18:22;;;;;;;11.25;2.03;;;;;;;10.29;100.00;99366.38;5031166;28;20405;-48
2021/12/01 02:21:04;;;;;;;10.88;1.65;;;;;;;10.57;100.00;99410.41;5032592;28;20042;-48
2021/12/01 02:23:30;;;;;;;6.45;1.67;;;;;;;10.21;100.00;99349.31;5032523;28;20049;-52
2021/12/01 02:25:55;;;;;;;8.85;1.42;;;;;;;10.52;100.00;99392.25;5032738;28;20072;-51
2021/12/01 02:28:21;;;;;;;6.78;1.48;;;;;;;10.26;100.00;99350.75;5032699;28;20091;-50
2021/12/01 02:30:46;;;;;;;5.05;1.52;;;;;;;10.19;100.00;99330.16;5032495;28;20029;-45
2021/12/01 02:33:12;;;;;;;9.15;1.50;;;;;;;10.23;100.00;99340.41;5032190;28;20033;-46
2021/12/01 02:35:37;;;;;;;5.15;1.38;;;;;;;10.56;100.00;99378.00;5031344;28;20124;-49
2021/12/01 02:38:04;;;;;;;7.68;1.45;;;;;;;10.53;100.00;99383.44;5031207;28;20108;-50
2021/12/01 02:40:31;;;;;;;7.15;1.40;;;;;;;10.53;100.00;99374.69;5031053;28;20124;-47
2021/12/01 02:42:56;;;;;;;6.90;1.33;;;;;;;9.80;100.00;99246.38;5032342;28;20042;-52
2021/12/01 02:45:22;;;;;;;4.97;1.15;;;;;;;10.42;100.00;99358.66;5032493;28;20374;-50
2021/12/01 02:47:47;;;;;;;4.90;1.30;;;;;;;10.11;100.00;99296.34;5032384;28;20029;-51
2021/12/01 02:50:13;;;;;;;4.93;1.45;;;;;;;10.33;100.00;99338.13;5032374;28;20040;-49
2021/12/01 02:52:39;;;;;;;5.70;1.50;;;;;;;10.19;100.00;99323.06;5031084;28;20389;-47
2021/12/01 02:55:07;;;;;;;4.90;1.38;;;;;;;10.10;100.00;99313.03;5030938;28;20038;-48
2021/12/01 02:57:53;;;;;;;3.30;1.58;;;;;;;10.05;100.00;99318.53;5032385;28;20037;-47
2021/12/01 03:00:21;;;;;;;2.60;1.35;;;;;;;9.94;100.00;99307.78;5031273;28;20096;-49
2021/12/01 03:02:47;;;;;;;3.83;1.80;;;;;;;9.63;100.00;99246.44;5014386;28;20401;-53
2021/12/01 03:05:15;;;;;;;3.08;2.22;;;;;;;9.86;100.00;99302.09;5030851;28;20502;-54
2021/12/01 03:07:41;;;;;;;2.60;2.40;;;;;;;9.69;100.00;99261.88;5031089;28;20029;-51
2021/12/01 03:10:07;;;;;;;3.33;2.50;;;;;;;9.39;100.00;99203.94;5033963;28;20029;-48
2021/12/01 03:12:34;;;;;;;3.50;3.05;;;;;;;9.72;100.00;99274.84;5034988;28;20040;-49
2021/12/01 03:15:00;;;;;;;4.13;3.42;;;;;;;9.67;100.00;99268.97;5036160;28;20040;-48
2021/12/01 03:17:30;;;;;;;3.65;3.33;;;;;;;9.68;100.00;99258.41;5036450;28;20041;-49
2021/12/01 03:19:56;;;;;;;3.50;3.20;;;;;;;9.61;100.00;99220.25;5036264;28;20053;-52
2021/12/01 03:22:22;;;;;;;6.88;3.28;;;;;;;9.58;100.00;99217.78;5036063;28;20394;-52
2021/12/01 03:24:47;;;;;;;3.28;2.90;;;;;;;9.63;100.00;99228.06;5034662;28;20044;-49
2021/12/01 03:27:13;;;;;;;4.78;3.50;;;;;;;9.53;100.00;99202.28;5035887;28;20034;-48
2021/12/01 03:29:38;;;;;;;3.90;3.60;;;;;;;9.58;100.00;99208.13;5035674;28;20034;-51
2021/12/01 03:32:06;;;;;;;5.28;4.28;;;;;;;9.55;100.00;99203.03;5035785;28;20116;-49
2021/12/01 03:34:32;;;;;;;4.80;4.30;;;;;;;9.54;100.00;99190.81;5035637;28;20041;-47
2021/12/01 03:36:59;;;;;;;6.82;4.57;;;;;;;9.44;100.00;99180.91;5034422;28;20052;-51
2021/12/01 03:39:25;;;;;;;4.97;4.45;;;;;;;9.43;100.00;99182.69;5035618;28;20038;-53
2021/12/01 03:41:50;;;;;;;6.93;5.13;;;;;;;9.43;100.00;99172.16;5034438;28;20099;-50
2021/12/01 03:44:15;;;;;;;4.63;4.15;;;;;;;9.36;100.00;99165.56;5035859;28;20040;-50
2021/12/01 03:46:41;;;;;;;4.30;4.00;;;;;;;9.36;100.00;99154.22;5035584;28;20080;-51
2021/12/01 03:49:06;;;;;;;5.60;4.07;;;;;;;9.33;100.00;99146.50;5035740;28;20037;-48
2021/12/01 03:51:31;;;;;;;5.10;3.83;;;;;;;9.33;100.00;99157.84;5035418;28;20385;-50
2021/12/01 03:53:57;;;;;;;4.40;3.95;;;;;;;9.23;100.00;99140.88;5035243;28;20049;-51
2021/12/01 03:56:22;;;;;;;4.40;3.92;;;;;;;9.23;100.00;99145.28;5034911;28;20036;-49
2021/12/01 03:58:47;;;;;;;5.20;4.50;;;;;;;9.23;100.00;99140.03;5034907;28;20038;-52
2021/12/01 04:01:13;;;;;;;5.38;4.72;;;;;;;9.17;100.00;99128.09;5035113;28;20033;-48
2021/12/01 04:03:39;;;;;;;5.22;4.78;;;;;;;9.14;100.00;99127.41;5033774;28;20076;-50
2021/12/01 04:06:04;;;;;;;5.78;5.18;;;;;;;8.80;100.00;99053.13;5034103;28;20381;-47
2021/12/01 04:08:30;;;;;;;6.47;5.85;;;;;;;9.10;100.00;99105.75;5035115;28;20061;-52
2021/12/01 04:10:55;;;;;;;6.15;5.55;;;;;;;9.10;100.00;99104.88;5017756;28;20045;-49
2021/12/01 04:13:21;;;;;;;8.40;5.72;;;;;;;9.08;100.00;99091.84;5033699;28;20096;-51
2021/12/01 04:15:46;;;;;;;6.20;5.70;;;;;;;8.80;100.00;99047.03;5035061;28;20029;-49
2021/12/01 04:18:12;;;;;;;6.70;5.97;;;;;;;8.76;100.00;99033.22;5034711;28;20045;-49
2021/12/01 04:20:37;;;;;;;6.70;5.60;;;;;;;8.70;100.00;99016.97;5034776;28;20037;-50
2021/12/01 04:23:03;;;;;;;6.05;5.53;;;;;;;8.76;100.00;99045.47;5034935;28;20120;-52
2021/12/01 04:25:28;;;;;;;7.00;6.30;;;;;;;8.80;100.00;99039.16;5034584;28;20048;-51
2021/12/01 04:27:54;;;;;;;5.90;5.40;;;;;;;8.67;100.00;99017.97;5034785;28;20496;-51
2021/12/01 04:30:22;;;;;;;6.88;6.25;;;;;;;9.00;100.00;99065.16;5034620;28;20029;-49
2021/12/01 04:32:47;;;;;;;6.75;6.13;;;;;;;8.93;100.00;99034.94;5033196;28;20033;-48
2021/12/01 04:35:15;;;;;;;5.95;5.45;;;;;;;8.86;100.00;99036.19;5033372;28;20036;-51
2021/12/01 04:37:41;;;;;;;7.60;6.20;;;;;;;8.99;100.00;99047.72;5034670;28;20076;-49
2021/12/01 04:40:07;;;;;;;6.82;5.20;;;;;;;8.67;100.00;98983.03;5033003;28;20474;-49
2021/12/01 04:42:33;;;;;;;6.18;5.68;;;;;;;8.72;100.00;98981.00;5034415;28;20044;-49
2021/12/01 04:44:59;;;;;;;6.10;5.60;;;;;;;8.93;100.00;99020.03;5034482;28;20465;-48
2021/12/01 04:47:29;;;;;;;6.28;5.03;;;;;;;8.84;100.00;99004.78;5034335;28;20044;-51
2021/12/01 04:49:56;;;;;;;6.90;6.25;;;;;;;8.87;100.00;99004.63;5034614;28;20033;-51
2021/12/01 04:52:21;;;;;;;8.38;6.43;;;;;;;8.99;100.00;99013.59;5016577;28;20168;-51
2021/12/01 04:54:46;;;;;;;7.35;6.68;;;;;;;8.85;100.00;98993.38;5034231;28;20120;-48
2021/12/01 04:57:12;;;;;;;8.35;7.72;;;;;;;8.98;100.00;99007.53;5034245;28;20044;-51
2021/12/01 04:59:37;;;;;;;8.07;7.35;;;;;;;9.02;100.00;98997.69;5034108;28;20037;-48
2021/12/01 05:02:03;;;;;;;7.40;6.70;;;;;;;8.65;100.00;98950.78;5032690;28;20033;-52
2021/12/01 05:04:30;;;;;;;7.63;6.97;;;;;;;9.01;100.00;99004.72;5034000;28;20069;-50
2021/12/01 05:06:56;;;;;;;8.30;7.57;;;;;;;8.98;100.00;98990.94;5032837;28;20029;-50
2021/12/01 05:09:21;;;;;;;8.30;7.70;;;;;;;8.68;100.00;98919.16;5033818;28;20099;-48
2021/12/01 05:11:47;;;;;;;8.95;8.05;;;;;;;9.00;100.00;98986.44;5033783;28;20029;-47
2021/12/01 05:14:13;;;;;;;8.05;7.35;;;;;;;9.00;100.00;98968.91;5033575;28;20116;-51
2021/12/01 05:16:40;;;;;;;7.32;6.82;;;;;;;8.70;100.00;98928.63;5034024;28;20030;-49
2021/12/01 05:19:07;;;;;;;7.18;6.55;;;;;;;8.99;100.00;98977.72;5033687;28;20053;-48
2021/12/01 05:21:32;;;;;;;7.30;6.70;;;;;;;9.00;100.00;98968.06;5033716;28;20041;-47
2021/12/01 05:23:58;;;;;;;5.95;5.32;;;;;;;9.00;100.00;98971.53;5032434;28;20040;-48
2021/12/01 05:26:23;;;;;;;5.07;4.57;;;;;;;9.03;100.00;98954.78;5033561;28;20033;-53
2021/12/01 05:28:49;;;;;;;5.22;4.72;;;;;;;8.93;100.00;98932.63;5033996;28;20380;-48
2021/12/01 05:31:14;;;;;;;4.68;4.00;;;;;;;9.05;100.00;98971.28;5032967;28;20050;-49
2021/12/01 05:33:40;;;;;;;6.57;3.58;;;;;;;8.73;100.00;98910.09;5032508;28;20096;-52
2021/12/01 05:36:06;;;;;;;3.72;3.42;;;;;;;8.60;100.00;98887.25;5033661;28;20029;-49
2021/12/01 05:38:31;;;;;;;4.13;3.55;;;;;;;9.02;100.00;98963.56;5033446;28;20036;-50
2021/12/01 05:40:57;;;;;;;4.30;2.28;;;;;;;8.98;100.00;98920.94;5033392;28;20038;-50
2021/12/01 05:43:22;;;;;;;4.07;2.75;;;;;;;9.06;100.00;98949.34;5032086;28;20037;-53
2021/12/01 05:45:48;;;;;;;4.10;2.80;;;;;;;9.00;100.00;98926.94;5033513;28;20388;-50
2021/12/01 05:48:14;;;;;;;2.42;2.22;;;;;;;8.94;100.00;98885.28;5032128;28;20037;-50
2021/12/01 05:50:39;;;;;;;3.90;2.08;;;;;;;9.01;100.00;98920.75;5033176;28;20041;-51
2021/12/01 05:53:05;;;;;;;4.70;2.53;;;;;;;8.80;100.00;98882.59;5033067;28;20041;-51
2021/12/01 05:55:30;;;;;;;3.00;2.10;;;;;;;8.78;100.00;98865.25;5033032;28;20068;-50
2021/12/01 05:57:56;;;;;;;2.05;1.88;;;;;;;8.84;100.00;98852.63;5033069;28;20374;-50
2021/12/01 06:00:22;;;;;;;7.25;2.85;;;;;;;9.14;100.00;98914.78;5031967;28;20034;-46
2021/12/01 06:02:50;;;;;;;3.20;2.50;;;;;;;9.15;100.00;98903.38;5031899;28;20034;-47
2021/12/01 06:05:19;;;;;;;6.00;3.05;;;;;;;8.90;100.00;98857.50;5032446;28;20033;-48
2021/12/01 06:07:46;;;;;;;3.45;2.70;;;;;;;8.95;100.00;98855.50;5032915;28;20037;-50
2021/12/01 06:10:11;;;;;;;3.50;3.15;;;;;;;9.22;100.00;98902.09;5032624;28;20043;-49
2021/12/01 06:12:39;;;;;;;4.82;3.22;;;;;;;9.22;100.00;98891.59;5032463;28;20033;-53
2021/12/01 06:15:07;;;;;;;5.32;3.20;;;;;;;8.92;100.00;98839.94;5031689;28;20037;-50
2021/12/01 06:17:33;;;;;;;5.55;3.20;;;;;;;8.92;100.00;98844.31;5031641;28;20029;-49
2021/12/01 06:19:59;;;;;;;6.85;3.10;;;;;;;8.91;100.00;98827.72;5031469;28;20328;-49
2021/12/01 06:22:24;;;;;;;7.43;3.17;;;;;;;9.18;100.00;98869.06;5032505;28;20073;-49
2021/12/01 06:24:49;;;;;;;8.50;3.10;;;;;;;8.81;100.00;98823.13;5032208;28;20048;-48
2021/12/01 06:27:15;;;;;;;6.70;3.30;;;;;;;8.21;100.00;98725.97;5030811;28;20037;-52
2021/12/01 06:29:40;;;;;;;8.00;3.40;;;;;;;8.85;100.00;98829.84;5031008;28;20040;-50
2021/12/01 06:32:06;;;;;;;5.28;3.50;;;;;;;8.93;100.00;98843.41;5031359;28;20038;-47
2021/12/01 06:34:31;;;;;;;5.28;3.15;;;;;;;9.06;100.00;98868.00;5029966;28;20512;-51
2021/12/01 06:36:56;;;;;;;7.00;3.10;;;;;;;9.09;100.00;98874.84;5031736;28;20029;-51
2021/12/01 06:39:22;;;;;;;8.02;3.03;;;;;;;9.15;100.00;98864.84;5031991;28;20065;-48
2021/12/01 06:41:47;;;;;;;9.98;3.08;;;;;;;9.01;100.00;98847.28;5030765;28;20496;-48
2021/12/01 06:44:13;;;;;;;9.45;3.05;;;;;;;9.10;100.00;98869.53;5030494;28;20115;-51
2021/12/01 06:46:38;;;;;;;7.07;2.92;;;;;;;8.77;100.00;98793.56;5030610;28;20052;-49
2021/12/01 06:49:03;;;;;;;5.13;2.70;;;;;;;9.07;100.00;98832.97;5030351;28;20036;-51
2021/12/01 06:51:29;;;;;;;7.43;2.97;;;;;;;9.05;100.00;98832.19;5046051;28;20120;-51
2021/12/01 06:53:54;;;;;;;9.05;3.53;;;;;;;9.12;100.00;98840.56;5032798;28;20045;-47
2021/12/01 06:56:21;;;;;;;10.30;2.75;;;;;;;9.11;100.00;98834.44;5048965;28;20613;-49
2021/12/01 06:58:47;;;;;;;9.57;3.42;;;;;;;9.13;100.00;98826.50;5042983;28;20065;-55
2021/12/01 07:01:13;;;;;;;8.93;2.78;;;;;;;9.14;100.00;98829.03;5032178;28;20420;-55
2021/12/01 07:03:39;;;;;;;9.32;2.65;;;;;;;9.15;100.00;98825.47;5032080;28;20034;-60
2021/12/01 07:06:05;;;;;;;8.68;3.10;;;;;;;9.14;100.00;98830.78;5030873;28;20036;-50
2021/12/01 07:08:31;;;;;;;6.43;3.03;;;;;;;9.14;100.00;98833.41;5046125;28;20021;-48
2021/12/01 07:10:57;;;;;;;14.07;3.60;;;;;;;8.70;100.00;98744.19;5036880;28;20037;-55
2021/12/01 07:13:23;;;;;;;12.43;3.55;;;;;;;9.22;100.00;98815.47;5051192;28;20094;-50
2021/12/01 07:15:48;;;;;;;8.70;3.55;;;;;;;9.19;100.00;98807.78;5051066;28;20041;-53
2021/12/01 07:18:14;;;;;;;20.33;3.65;;;;;;;9.26;100.00;98803.84;5050842;28;20071;-55
2021/12/01 07:20:39;;;;;;;11.65;3.28;;;;;;;9.27;100.00;98797.66;5051244;28;20036;-52
2021/12/01 07:23:05;;;;;;;8.93;3.08;;;;;;;9.23;100.00;98804.00;5051108;28;20037;-52
2021/12/01 07:25:31;;;;;;;12.57;3.42;;;;;;;9.01;100.00;98754.59;5050734;28;20040;-53
2021/12/01 07:27:57;;;;;;;14.20;3.30;;;;;;;9.34;100.00;98812.94;5049767;28;20036;-56
2021/12/01 07:30:23;;;;;;;17.08;3.80;;;;;;;9.00;100.00;98769.47;5048011;28;20037;-52
2021/12/01 07:32:49;;;;;;;17.77;3.72;;;;;;;9.30;100.00;98821.09;5031123;28;20036;-52
2021/12/01 07:35:16;;;;;;;13.50;2.92;;;;;;;9.28;100.00;98826.44;5050878;28;20037;-55
2021/12/01 07:37:41;;;;;;;19.08;3.65;;;;;;;9.28;100.00;98815.94;5043290;28;20050;-55
2021/12/01 07:40:07;;;;;;;23.35;3.58;;;;;;;8.93;100.00;98751.56;5030611;28;20041;-59
2021/12/01 07:42:33;;;;;;;14.15;3.47;;;;;;;9.26;100.00;98840.59;5031171;28;20041;-51
2021/12/01 07:44:58;;;;;;;18.52;3.72;;;;;;;9.26;100.00;98866.84;5047271;28;20047;-55
2021/12/01 07:47:23;;;;;;;14.75;3.55;;;;;;;8.88;100.00;98834.94;5033498;28;20116;-54
2021/12/01 07:49:49;;;;;;;17.33;3.45;;;;;;;8.73;100.00;98813.03;5059217;28;20037;-51
2021/12/01 07:52:14;;;;;;;17.17;3.60;;;;;;;7.73;100.00;98671.06;5030544;28;20045;-55
2021/12/01 07:54:39;;;;;;;14.00;2.42;;;;;;;8.42;100.00;98798.19;5038849;28;20102;-52
2021/12/01 07:57:05;;;;;;;11.50;2.67;;;;;;;8.47;100.00;98850.38;5050001;28;20087;-53
2021/12/01 07:59:31;;;;;;;12.27;2.13;;;;;;;8.64;100.00;98847.66;5048958;28;20041;-53
2021/12/01 08:01:56;;;;;;;7.28;1.90;;;;;;;8.42;100.00;98800.81;5034366;28;20440;-55
2021/12/01 08:04:22;;;;;;;11.70;1.85;;;;;;;8.56;100.00;98820.16;5042357;28;20083;-50
2021/12/01 08:06:47;;;;;;;5.95;1.85;;;;;;;8.54;100.00;98812.41;5036841;28;20042;-54
2021/12/01 08:09:13;;;;;;;9.93;1.90;;;;;;;8.59;100.00;98826.09;5039245;28;20029;-52
2021/12/01 08:11:39;;;;;;;9.20;2.10;;;;;;;8.52;100.00;98810.78;5033948;28;20030;-52
2021/12/01 08:14:06;;;;;;;12.82;2.67;;;;;;;8.54;100.00;98827.28;5044373;28;20033;-56
2021/12/01 08:16:36;;;;;;;8.80;1.92;;;;;;;8.78;100.00;98909.84;5039051;28;20109;-52
2021/12/01 08:19:02;;;;;;;11.88;1.90;;;;;;;8.62;100.00;98893.25;5044049;28;20049;-51
2021/12/01 08:21:27;;;;;;;10.10;2.13;;;;;;;8.21;100.00;98849.16;5053406;28;20396;-58
2021/12/01 08:23:53;;;;;;;8.40;1.70;;;;;;;8.51;100.00;98898.25;5058489;28;20072;-53
2021/12/01 08:26:19;;;;;;;12.57;2.42;;;;;;;8.46;100.00;98906.38;5039097;28;20046;-55
2021/12/01 08:28:46;;;;;;;12.18;2.90;;;;;;;8.15;100.00;98835.50;5033510;28;20041;-51
2021/12/01 08:31:13;;;;;;;10.35;2.15;;;;;;;8.43;100.00;98883.75;5033406;28;20041;-53
2021/12/01 08:33:39;;;;;;;9.02;1.45;;;;;;;8.22;100.00;98836.88;5037019;28;20052;-50
2021/12/01 08:36:04;;;;;;;13.57;3.00;;;;;;;8.57;100.00;98882.19;5033567;28;20038;-52
2021/12/01 08:38:30;;;;;;;9.45;1.65;;;;;;;8.62;100.00;98885.38;5043236;28;20481;-57
2021/12/01 08:40:55;;;;;;;9.18;2.00;;;;;;;8.33;100.00;98826.69;5050529;28;20491;-57
2021/12/01 08:43:21;;;;;;;10.18;1.80;;;;;;;8.65;100.00;98903.56;5048495;28;20052;-57
2021/12/01 08:45:46;;;;;;;12.50;1.98;;;;;;;8.31;100.00;98839.91;5052819;28;20098;-55
2021/12/01 08:48:11;;;;;;;11.77;1.73;;;;;;;8.32;100.00;98866.94;5052985;28;20111;-55
2021/12/01 08:50:37;;;;;;;5.82;1.50;;;;;;;8.66;100.00;98927.13;5052852;28;20694;-55
2021/12/01 08:53:02;;;;;;;5.85;1.30;;;;;;;8.25;100.00;98879.50;5051824;28;20047;-52
2021/12/01 08:55:28;;;;;;;7.38;1.42;;;;;;;8.40;100.00;98912.81;5044336;28;20447;-50
2021/12/01 08:57:53;;;;;;;10.95;1.40;;;;;;;8.48;100.00;98930.72;5034077;28;20084;-54
2021/12/01 09:00:20;;;;;;;6.95;1.30;;;;;;;8.43;100.00;98930.13;5051134;28;20037;-54
2021/12/01 09:02:46;;;;;;;11.80;2.38;;;;;;;8.17;100.00;98880.84;5052745;28;20041;-52
2021/12/01 09:05:12;;;;;;;8.88;1.67;;;;;;;8.52;100.00;98940.13;5052500;28;20447;-54
2021/12/01 09:07:38;;;;;;;14.55;2.08;;;;;;;8.42;100.00;98912.69;5045277;28;20036;-50
2021/12/01 09:10:05;;;;;;;17.25;1.75;;;;;;;8.27;100.00;98885.53;5048154;28;20510;-51
2021/12/01 09:12:30;;;;;;;11.43;1.65;;;;;;;8.78;100.00;98951.81;5032593;28;20496;-52
2021/12/01 09:14:57;;;;;;;8.10;1.77;;;;;;;8.87;100.00;98946.91;5032643;28;20037;-53
2021/12/01 09:17:22;;;;;;;8.75;2.10;;;;;;;8.74;100.00;98971.28;5031594;28;20045;-52
2021/12/01 09:19:48;;;;;;;5.55;1.58;;;;;;;7.79;100.00;98860.13;5047790;28;20049;-53
2021/12/01 09:22:14;;;;;;;10.75;1.95;;;;;;;8.33;100.00;98987.44;5032700;28;20547;-58
2021/12/01 09:24:39;;;;;;;11.73;1.50;;;;;;;8.18;100.00;98971.63;5036310;28;20040;-60
2021/12/01 09:27:05;;;;;;;12.82;2.22;;;;;;;8.12;100.00;98957.06;5033765;28;20109;-57
2021/12/01 09:29:31;;;;;;;8.55;1.90;;;;;;;8.08;100.00;98957.34;5032526;28;20037;-59
2021/12/01 09:31:58;;;;;;;13.70;2.22;;;;;;;7.66;100.00;98884.41;5044935;28;20477;-55
2021/12/01 09:34:23;;;;;;;17.20;2.63;;;;;;;7.89;100.00;98916.34;5050832;28;20155;-55
2021/12/01 09:36:48;;;;;;;12.82;2.70;;;;;;;8.05;100.00;98954.88;5052241;28;20183;-55
2021/12/01 09:39:14;;;;;;;12.95;2.60;;;;;;;7.80;100.00;98903.72;5052070;28;20549;-53
2021/12/01 09:41:39;;;;;;;11.57;2.20;;;;;;;8.24;100.00;98966.91;5067709;28;20448;-56
2021/12/01 09:44:05;;;;;;;13.27;2.13;;;;;;;8.26;100.00;98966.84;5067663;28;20047;-53
2021/12/01 09:46:31;;;;;;;11.75;2.33;;;;;;;8.19;100.00;98963.69;5067421;28;20378;-55
2021/12/01 09:48:57;;;;;;;10.40;2.15;;;;;;;8.19;100.00;98968.09;5067438;28;20076;-55
2021/12/01 09:51:22;;;;;;;9.88;1.67;;;;;;;7.92;100.00;98936.31;5051970;28;20044;-54
2021/12/01 09:53:48;;;;;;;9.05;2.45;;;;;;;7.86;100.00;98939.25;5052208;28;20041;-55
2021/12/01 09:56:14;;;;;;;11.10;1.65;;;;;;;8.19;100.00;99002.16;5067175;28;20032;-56
2021/12/01 09:58:42;;;;;;;13.88;1.90;;;;;;;8.23;100.00;98999.28;5067057;28;20029;-56
2021/12/01 10:01:12;;;;;;;10.98;2.00;;;;;;;8.16;100.00;98973.50;5051831;28;20020;-57
2021/12/01 10:03:38;;;;;;;9.60;1.85;;;;;;;7.88;100.00;98934.78;5051669;28;20075;-52
2021/12/01 10:06:07;;;;;;;11.13;2.03;;;;;;;8.13;100.00;98992.00;5051580;28;20041;-54
2021/12/01 10:08:38;;;;;;;13.60;1.98;;;;;;;8.10;100.00;98993.00;5051810;28;20033;-56
2021/12/01 10:11:11;;;;;;;12.13;1.90;;;;;;;7.49;100.00;98876.59;5051741;28;20039;-51
2021/12/01 10:13:39;;;;;;;13.73;3.33;;;;;;;8.17;100.00;98990.91;5051388;28;20083;-55
2021/12/01 10:16:08;;;;;;;13.68;2.47;;;;;;;8.11;100.00;98968.50;5051360;28;20086;-56
2021/12/01 10:18:39;;;;;;;11.65;2.47;;;;;;;8.21;100.00;98985.44;5051153;28;20053;-54
2021/12/01 10:21:25;;;;;;;15.63;2.28;;;;;;;8.21;100.00;98981.97;5050262;28;20527;-53
2021/12/01 10:23:57;;;;;;;15.27;2.60;;;;;;;7.86;100.00;98919.13;5051725;28;20029;-57
2021/12/01 10:26:30;;;;;;;17.15;2.80;;;;;;;8.02;100.00;98927.06;5051379;28;20037;-53
2021/12/01 10:29:05;;;;;;;15.63;2.53;;;;;;;8.31;100.00;98970.97;5066625;28;20033;-54
2021/12/01 10:32:10;;;;;;;13.90;2.25;;;;;;;8.37;100.00;98969.78;5051475;28;20098;-51
2021/12/01 10:34:39;;;;;;;18.98;2.90;;;;;;;8.46;100.00;98966.69;5053679;28;20427;-54
2021/12/01 10:37:31;;;;;;;12.07;2.20;;;;;;;8.50;100.00;98983.91;5049796;28;20167;-54
2021/12/01 10:40:14;;;;;;;11.30;2.05;;;;;;;8.26;100.00;98924.91;5049838;28;20437;-50
2021/12/01 10:43:01;;;;;;;14.45;2.90;;;;;;;8.17;100.00;98918.38;5051222;28;20373;-57
2021/12/01 10:45:31;;;;;;;14.15;2.40;;;;;;;8.43;100.00;98953.72;5051119;28;20041;-52
2021/12/01 10:47:57;;;;;;;10.77;1.83;;;;;;;8.48;100.00;98998.91;5051587;28;20120;-50
2021/12/01 10:50:26;;;;;;;15.07;2.60;;;;;;;8.44;100.00;98986.88;5051199;28;20072;-54
2021/12/01 10:53:04;;;;;;;8.70;2.13;;;;;;;8.39;100.00;98968.78;5066593;28;20098;-51
2021/12/01 10:55:31;;;;;;;10.13;2.38;;;;;;;8.20;100.00;98922.63;5050875;28;20040;-53
2021/12/01 10:58:04;;;;;;;10.55;2.00;;;;;;;8.54;100.00;98992.47;5051089;28;20037;-53
2021/12/01 11:00:32;;;;;;;10.35;2.08;;;;;;;8.55;100.00;98984.56;5051246;28;20036;-50
2021/12/01 11:03:05;;;;;;;14.50;1.95;;;;;;;8.53;100.00;98972.41;5049734;28;20365;-53
2021/12/01 11:05:37;;;;;;;9.55;2.13;;;;;;;8.30;100.00;98939.56;5049557;28;20511;-51
2021/12/01 11:08:13;;;;;;;8.35;1.50;;;;;;;8.38;100.00;98932.13;5051091;28;20087;-50
2021/12/01 11:10:38;;;;;;;9.38;1.42;;;;;;;8.71;100.00;99003.75;5050806;28;20449;-52
2021/12/01 11:13:05;;;;;;;6.55;1.60;;;;;;;8.75;100.00;98992.19;5049475;28;20171;-50
2021/12/01 11:15:33;;;;;;;14.40;2.28;;;;;;;8.46;100.00;98940.47;5065968;28;20033;-51
2021/12/01 11:18:00;;;;;;;8.43;2.15;;;;;;;8.77;100.00;98981.59;5066076;28;20037;-53
2021/12/01 11:20:46;;;;;;;9.20;2.10;;;;;;;8.79;100.00;98990.22;5050569;28;20440;-53
2021/12/01 11:23:23;;;;;;;9.00;3.05;;;;;;;8.78;100.00;98996.41;5066086;28;20122;-53
2021/12/01 11:25:51;;;;;;;7.50;1.70;;;;;;;8.76;100.00;98993.88;5050699;28;20037;-51
2021/12/01 11:28:20;;;;;;;9.82;2.30;;;;;;;8.53;100.00;98959.31;5049069;28;20044;-56
2021/12/01 11:30:48;;;;;;;7.78;1.95;;;;;;;8.80;100.00;98999.78;5053156;28;20036;-53
2021/12/01 11:33:17;;;;;;;8.00;2.10;;;;;;;8.77;100.00;98989.47;5054252;28;20091;-54
2021/12/01 11:35:45;;;;;;;11.15;2.70;;;;;;;8.77;100.00;98997.34;5069727;28;20033;-52